createdAt,value
2022-08-20T00:00:48.190Z,0.00
2022-08-20T00:01:48.117Z,0.00
2022-08-20T00:02:47.977Z,0.00
2022-08-20T00:03:50.249Z,0.00
2022-08-20T00:04:47.879Z,0.00
2022-08-20T00:05:47.737Z,0.00
2022-08-20T00:06:47.682Z,0.00
2022-08-20T00:07:47.806Z,0.00
2022-08-20T00:08:47.558Z,0.00
2022-08-20T00:09:47.533Z,0.00
2022-08-20T00:10:47.669Z,0.00
2022-08-20T00:11:47.394Z,0.00
2022-08-20T00:12:47.319Z,0.00
2022-08-20T00:13:47.292Z,0.00
2022-08-20T00:14:47.213Z,0.00
2022-08-20T00:15:47.146Z,0.00
2022-08-20T00:16:47.089Z,0.00
2022-08-20T00:17:47.028Z,0.00
2022-08-20T00:18:46.980Z,0.00
2022-08-20T00:19:46.910Z,0.00
2022-08-20T00:20:46.851Z,0.00
2022-08-20T00:21:46.795Z,0.00
2022-08-20T00:22:46.741Z,0.00
2022-08-20T00:23:46.678Z,0.00
2022-08-20T00:24:46.615Z,0.00
2022-08-20T00:25:46.556Z,0.00
2022-08-20T00:26:52.419Z,0.00
2022-08-20T00:27:46.438Z,0.00
2022-08-20T00:28:46.389Z,0.00
2022-08-20T00:29:46.328Z,0.00
2022-08-20T00:30:46.277Z,0.00
2022-08-20T00:31:46.202Z,0.00
2022-08-20T00:32:46.164Z,0.00
2022-08-20T00:33:46.096Z,0.00
2022-08-20T00:34:46.054Z,0.00
2022-08-20T00:35:45.975Z,0.00
2022-08-20T00:36:45.914Z,0.00
2022-08-20T00:37:45.879Z,0.00
2022-08-20T00:38:45.799Z,0.00
2022-08-20T00:39:45.790Z,0.00
2022-08-20T00:40:45.716Z,0.00
2022-08-20T00:41:45.617Z,0.00
2022-08-20T00:42:45.565Z,0.00
2022-08-20T00:43:45.499Z,0.00
2022-08-20T00:44:45.441Z,0.00
2022-08-20T00:45:45.393Z,0.00
2022-08-20T00:46:45.326Z,0.00
2022-08-20T00:47:55.860Z,0.00
2022-08-20T00:48:45.213Z,0.00
2022-08-20T00:49:45.146Z,0.00
2022-08-20T00:50:45.088Z,0.00
2022-08-20T00:51:45.061Z,0.00
2022-08-20T00:52:49.757Z,0.00
2022-08-20T00:53:44.919Z,0.00
2022-08-20T00:54:44.872Z,0.00
2022-08-20T00:55:44.802Z,0.00
2022-08-20T00:56:44.752Z,0.00
2022-08-20T00:58:00.635Z,0.00
2022-08-20T00:58:44.631Z,0.00
2022-08-20T00:59:44.565Z,0.00
2022-08-20T01:00:44.538Z,0.00
2022-08-20T01:01:55.336Z,0.00
2022-08-20T01:02:44.384Z,0.00
2022-08-20T01:03:44.323Z,0.00
2022-08-20T01:04:44.269Z,0.00
2022-08-20T01:05:44.236Z,0.00
2022-08-20T01:06:44.203Z,0.00
2022-08-20T01:07:44.110Z,0.00
2022-08-20T01:08:44.084Z,0.00
2022-08-20T01:09:58.061Z,0.00
2022-08-20T01:10:43.923Z,0.00
2022-08-20T01:11:43.856Z,0.00
2022-08-20T01:12:43.802Z,0.00
2022-08-20T01:13:43.740Z,0.00
2022-08-20T01:14:43.688Z,0.00
2022-08-20T01:15:43.666Z,0.00
2022-08-20T01:16:43.563Z,0.00
2022-08-20T01:17:43.510Z,0.00
2022-08-20T01:18:43.474Z,0.00
2022-08-20T01:19:43.395Z,0.00
2022-08-20T01:20:43.335Z,0.00
2022-08-20T01:21:45.831Z,0.00
2022-08-20T01:22:43.224Z,0.00
2022-08-20T01:23:43.158Z,0.00
2022-08-20T01:24:43.100Z,0.00
2022-08-20T01:25:43.078Z,0.00
2022-08-20T01:26:42.976Z,0.00
2022-08-20T01:27:43.063Z,0.00
2022-08-20T01:28:42.856Z,0.00
2022-08-20T01:29:42.797Z,0.00
2022-08-20T01:30:42.740Z,0.00
2022-08-20T01:31:42.703Z,0.00
2022-08-20T01:32:42.660Z,0.00
2022-08-20T01:33:42.569Z,0.00
2022-08-20T01:34:42.517Z,0.00
2022-08-20T01:35:42.451Z,0.00
2022-08-20T01:36:46.149Z,0.00
2022-08-20T01:37:42.331Z,0.00
2022-08-20T01:38:53.940Z,0.00
2022-08-20T01:39:42.219Z,0.00
2022-08-20T01:40:42.153Z,0.00
2022-08-20T01:41:42.092Z,0.00
2022-08-20T01:42:58.598Z,0.00
2022-08-20T01:43:41.977Z,0.00
2022-08-20T01:44:41.941Z,0.00
2022-08-20T01:45:41.865Z,0.00
2022-08-20T01:46:43.760Z,0.00
2022-08-20T01:47:41.743Z,0.00
2022-08-20T01:48:41.688Z,0.00
2022-08-20T01:49:41.626Z,0.00
2022-08-20T01:50:41.577Z,0.00
2022-08-20T01:51:41.509Z,0.00
2022-08-20T01:52:41.460Z,0.00
2022-08-20T01:53:41.395Z,0.00
2022-08-20T01:54:41.343Z,0.00
2022-08-20T01:55:41.275Z,0.00
2022-08-20T01:56:41.231Z,0.00
2022-08-20T01:57:41.185Z,0.00
2022-08-20T01:58:41.093Z,0.00
2022-08-20T01:59:41.044Z,0.00
2022-08-20T02:00:40.991Z,0.00
2022-08-20T02:01:46.460Z,0.00
2022-08-20T02:02:40.865Z,0.00
2022-08-20T02:03:44.527Z,0.00
2022-08-20T02:04:40.747Z,0.00
2022-08-20T02:05:40.718Z,0.00
2022-08-20T02:06:40.631Z,0.00
2022-08-20T02:07:40.558Z,0.00
2022-08-20T02:08:40.505Z,0.00
2022-08-20T02:09:40.440Z,0.00
2022-08-20T02:10:40.383Z,0.00
2022-08-20T02:11:40.323Z,0.00
2022-08-20T02:12:40.264Z,0.00
2022-08-20T02:13:40.224Z,0.00
2022-08-20T02:14:40.146Z,0.00
2022-08-20T02:15:43.141Z,0.00
2022-08-20T02:16:40.031Z,0.00
2022-08-20T02:17:39.978Z,0.00
2022-08-20T02:18:39.913Z,0.00
2022-08-20T02:19:39.848Z,0.00
2022-08-20T02:20:39.796Z,0.00
2022-08-20T02:21:39.733Z,0.00
2022-08-20T02:22:39.669Z,0.00
2022-08-20T02:23:39.615Z,0.00
2022-08-20T02:24:39.552Z,0.00
2022-08-20T02:25:39.494Z,0.00
2022-08-20T02:26:39.433Z,0.00
2022-08-20T02:27:39.372Z,0.00
2022-08-20T02:28:39.315Z,0.00
2022-08-20T02:29:39.253Z,0.00
2022-08-20T02:30:39.192Z,0.00
2022-08-20T02:32:23.380Z,0.00
2022-08-20T02:32:39.088Z,0.00
2022-08-20T02:33:39.128Z,0.00
2022-08-20T02:34:38.955Z,0.00
2022-08-20T02:35:38.895Z,0.00
2022-08-20T02:36:38.840Z,0.00
2022-08-20T02:37:38.805Z,0.00
2022-08-20T02:38:38.739Z,0.00
2022-08-20T02:39:38.704Z,0.00
2022-08-20T02:40:38.609Z,0.00
2022-08-20T02:41:38.548Z,0.00
2022-08-20T02:42:38.497Z,0.00
2022-08-20T02:43:38.450Z,0.00
2022-08-20T02:44:38.363Z,0.00
2022-08-20T02:45:38.307Z,0.00
2022-08-20T02:46:38.253Z,0.00
2022-08-20T02:47:38.193Z,0.00
2022-08-20T02:48:38.133Z,0.00
2022-08-20T02:49:38.066Z,0.00
2022-08-20T02:50:38.006Z,0.00
2022-08-20T02:51:37.974Z,0.00
2022-08-20T02:52:37.900Z,0.00
2022-08-20T02:53:37.833Z,0.00
2022-08-20T02:54:37.779Z,0.00
2022-08-20T02:55:37.743Z,0.00
2022-08-20T02:56:37.690Z,0.00
2022-08-20T02:57:37.592Z,0.00
2022-08-20T02:58:37.541Z,0.00
2022-08-20T02:59:37.489Z,0.00
2022-08-20T03:00:38.004Z,0.00
2022-08-20T03:01:37.395Z,0.00
2022-08-20T03:02:37.291Z,0.00
2022-08-20T03:03:37.241Z,0.00
2022-08-20T03:04:37.178Z,0.00
2022-08-20T03:05:37.122Z,0.00
2022-08-20T03:06:37.057Z,0.00
2022-08-20T03:07:36.995Z,0.00
2022-08-20T03:08:36.934Z,0.00
2022-08-20T03:09:36.872Z,0.00
2022-08-20T03:10:36.816Z,0.00
2022-08-20T03:11:36.757Z,0.00
2022-08-20T03:12:36.695Z,0.00
2022-08-20T03:13:36.644Z,0.00
2022-08-20T03:14:36.586Z,0.00
2022-08-20T03:15:36.538Z,0.00
2022-08-20T03:16:36.462Z,0.00
2022-08-20T03:17:36.398Z,0.00
2022-08-20T03:18:36.336Z,0.00
2022-08-20T03:19:36.328Z,0.00
2022-08-20T03:20:36.219Z,0.00
2022-08-20T03:21:36.162Z,0.00
2022-08-20T03:22:36.100Z,0.00
2022-08-20T03:23:36.041Z,0.00
2022-08-20T03:24:35.982Z,0.00
2022-08-20T03:25:35.920Z,0.00
2022-08-20T03:26:35.869Z,0.00
2022-08-20T03:27:36.466Z,0.00
2022-08-20T03:28:35.747Z,0.00
2022-08-20T03:29:35.683Z,0.00
2022-08-20T03:30:35.625Z,0.00
2022-08-20T03:31:35.567Z,0.00
2022-08-20T03:32:35.506Z,0.00
2022-08-20T03:33:35.445Z,0.00
2022-08-20T03:34:35.418Z,0.00
2022-08-20T03:35:35.327Z,0.00
2022-08-20T03:36:35.272Z,0.00
2022-08-20T03:37:35.211Z,0.00
2022-08-20T03:38:35.151Z,0.00
2022-08-20T03:39:35.118Z,0.00
2022-08-20T03:40:35.031Z,0.00
2022-08-20T03:41:34.978Z,0.00
2022-08-20T03:42:34.909Z,0.00
2022-08-20T03:43:34.849Z,0.00
2022-08-20T03:44:34.805Z,0.00
2022-08-20T03:45:34.732Z,0.00
2022-08-20T03:46:34.683Z,4.00
2022-08-20T03:47:34.620Z,4.00
2022-08-20T03:48:34.568Z,4.00
2022-08-20T03:49:34.511Z,0.00
2022-08-20T03:50:34.450Z,0.00
2022-08-20T03:51:57.252Z,0.00
2022-08-20T03:52:34.318Z,4.00
2022-08-20T03:53:34.264Z,4.00
2022-08-20T03:54:34.207Z,4.00
2022-08-20T03:55:34.145Z,4.00
2022-08-20T03:56:34.078Z,4.00
2022-08-20T03:57:34.023Z,0.00
2022-08-20T03:58:36.106Z,4.00
2022-08-20T03:59:33.902Z,4.00
2022-08-20T04:00:33.869Z,4.00
2022-08-20T04:01:45.031Z,4.00
2022-08-20T04:02:33.733Z,4.00
2022-08-20T04:03:33.662Z,8.00
2022-08-20T04:04:33.607Z,8.00
2022-08-20T04:05:33.549Z,8.00
2022-08-20T04:06:33.485Z,8.00
2022-08-20T04:07:33.427Z,8.00
2022-08-20T04:08:33.387Z,8.00
2022-08-20T04:09:33.308Z,8.00
2022-08-20T04:10:33.260Z,8.00
2022-08-20T04:11:33.196Z,12.00
2022-08-20T04:12:33.135Z,16.00
2022-08-20T04:13:33.069Z,16.00
2022-08-20T04:14:33.037Z,12.00
2022-08-20T04:15:32.955Z,16.00
2022-08-20T04:16:32.891Z,20.00
2022-08-20T04:17:32.833Z,20.00
2022-08-20T04:18:32.776Z,24.00
2022-08-20T04:19:34.351Z,20.00
2022-08-20T04:20:32.654Z,24.00
2022-08-20T04:21:33.358Z,24.00
2022-08-20T04:22:32.541Z,28.00
2022-08-20T04:23:32.477Z,36.00
2022-08-20T04:24:32.764Z,44.00
2022-08-20T04:25:35.879Z,52.00
2022-08-20T04:26:32.312Z,52.00
2022-08-20T04:27:32.248Z,56.00
2022-08-20T04:28:32.194Z,60.00
2022-08-20T04:29:32.803Z,60.00
2022-08-20T04:30:32.067Z,64.00
2022-08-20T04:31:32.006Z,64.00
2022-08-20T04:32:31.943Z,56.00
2022-08-20T04:33:33.730Z,56.00
2022-08-20T04:34:31.824Z,60.00
2022-08-20T04:35:31.782Z,56.00
2022-08-20T04:36:31.707Z,64.00
2022-08-20T04:37:31.646Z,68.00
2022-08-20T04:38:49.839Z,68.00
2022-08-20T04:39:31.534Z,76.00
2022-08-20T04:40:31.470Z,76.00
2022-08-20T04:41:31.428Z,76.00
2022-08-20T04:42:31.364Z,80.00
2022-08-20T04:43:31.309Z,76.00
2022-08-20T04:44:31.242Z,84.00
2022-08-20T04:45:31.184Z,92.00
2022-08-20T04:46:31.120Z,104.00
2022-08-20T04:47:34.685Z,116.00
2022-08-20T04:48:31.016Z,124.00
2022-08-20T04:49:30.944Z,128.00
2022-08-20T04:50:30.894Z,132.00
2022-08-20T04:51:30.845Z,132.00
2022-08-20T04:52:30.757Z,144.00
2022-08-20T04:53:30.698Z,152.00
2022-08-20T04:54:30.638Z,152.00
2022-08-20T04:55:30.581Z,148.00
2022-08-20T04:56:30.519Z,152.00
2022-08-20T04:57:30.464Z,156.00
2022-08-20T04:58:30.430Z,164.00
2022-08-20T04:59:30.343Z,180.00
2022-08-20T05:00:30.300Z,176.00
2022-08-20T05:01:30.312Z,180.00
2022-08-20T05:02:30.171Z,184.00
2022-08-20T05:03:30.106Z,188.00
2022-08-20T05:04:30.048Z,196.00
2022-08-20T05:05:29.993Z,204.00
2022-08-20T05:06:29.927Z,208.00
2022-08-20T05:07:29.869Z,216.00
2022-08-20T05:08:29.815Z,216.00
2022-08-20T05:09:29.768Z,224.00
2022-08-20T05:10:29.693Z,228.00
2022-08-20T05:11:35.567Z,228.00
2022-08-20T05:12:29.578Z,224.00
2022-08-20T05:13:29.514Z,224.00
2022-08-20T05:14:29.489Z,216.00
2022-08-20T05:15:29.407Z,216.00
2022-08-20T05:16:29.340Z,208.00
2022-08-20T05:17:29.288Z,204.00
2022-08-20T05:18:29.220Z,200.00
2022-08-20T05:19:29.170Z,192.00
2022-08-20T05:20:29.100Z,188.00
2022-08-20T05:21:29.044Z,180.00
2022-08-20T05:22:30.122Z,180.00
2022-08-20T05:23:28.930Z,176.00
2022-08-20T05:24:28.864Z,180.00
2022-08-20T05:25:28.807Z,192.00
2022-08-20T05:26:28.742Z,208.00
2022-08-20T05:27:28.707Z,224.00
2022-08-20T05:28:28.640Z,240.00
2022-08-20T05:29:28.572Z,256.00
2022-08-20T05:30:28.508Z,272.00
2022-08-20T05:31:31.977Z,288.00
2022-08-20T05:32:28.390Z,288.00
2022-08-20T05:33:28.344Z,296.00
2022-08-20T05:34:28.269Z,304.00
2022-08-20T05:35:28.212Z,308.00
2022-08-20T05:36:28.157Z,308.00
2022-08-20T05:37:28.092Z,304.00
2022-08-20T05:38:28.033Z,304.00
2022-08-20T05:39:27.982Z,296.00
2022-08-20T05:40:27.914Z,288.00
2022-08-20T05:41:28.885Z,284.00
2022-08-20T05:42:27.795Z,284.00
2022-08-20T05:43:27.736Z,284.00
2022-08-20T05:44:27.677Z,280.00
2022-08-20T05:45:27.618Z,288.00
2022-08-20T05:46:27.559Z,300.00
2022-08-20T05:47:27.500Z,296.00
2022-08-20T05:48:27.442Z,304.00
2022-08-20T05:49:28.093Z,320.00
2022-08-20T05:50:27.331Z,328.00
2022-08-20T05:51:27.266Z,340.00
2022-08-20T05:52:27.202Z,344.00
2022-08-20T05:53:27.150Z,348.00
2022-08-20T05:54:27.084Z,352.00
2022-08-20T05:55:27.027Z,348.00
2022-08-20T05:56:27.229Z,348.00
2022-08-20T05:57:26.909Z,352.00
2022-08-20T05:58:26.845Z,360.00
2022-08-20T05:59:26.800Z,368.00
2022-08-20T06:00:26.727Z,372.00
2022-08-20T06:01:26.697Z,384.00
2022-08-20T06:02:26.610Z,388.00
2022-08-20T06:03:26.556Z,396.00
2022-08-20T06:04:26.491Z,400.00
2022-08-20T06:05:26.432Z,400.00
2022-08-20T06:06:44.260Z,404.00
2022-08-20T06:07:26.322Z,416.00
2022-08-20T06:08:26.261Z,416.00
2022-08-20T06:09:31.481Z,416.00
2022-08-20T06:10:26.140Z,424.00
2022-08-20T06:11:26.077Z,432.00
2022-08-20T06:12:26.026Z,424.00
2022-08-20T06:13:25.975Z,420.00
2022-08-20T06:14:25.902Z,412.00
2022-08-20T06:15:25.844Z,392.00
2022-08-20T06:16:29.039Z,372.00
2022-08-20T06:17:25.723Z,352.00
2022-08-20T06:18:27.759Z,332.00
2022-08-20T06:19:26.399Z,316.00
2022-08-20T06:20:25.547Z,308.00
2022-08-20T06:21:25.497Z,296.00
2022-08-20T06:22:26.776Z,300.00
2022-08-20T06:23:25.372Z,304.00
2022-08-20T06:24:25.316Z,308.00
2022-08-20T06:25:25.253Z,320.00
2022-08-20T06:26:30.402Z,332.00
2022-08-20T06:27:25.147Z,344.00
2022-08-20T06:28:25.075Z,360.00
2022-08-20T06:29:25.026Z,372.00
2022-08-20T06:30:24.951Z,380.00
2022-08-20T06:31:24.894Z,380.00
2022-08-20T06:32:28.717Z,388.00
2022-08-20T06:33:24.779Z,400.00
2022-08-20T06:34:24.714Z,408.00
2022-08-20T06:35:24.660Z,420.00
2022-08-20T06:36:24.611Z,424.00
2022-08-20T06:37:28.141Z,424.00
2022-08-20T06:38:24.490Z,424.00
2022-08-20T06:39:24.432Z,428.00
2022-08-20T06:40:24.363Z,428.00
2022-08-20T06:41:35.821Z,420.00
2022-08-20T06:42:24.249Z,416.00
2022-08-20T06:43:24.195Z,404.00
2022-08-20T06:44:24.126Z,392.00
2022-08-20T06:45:24.068Z,376.00
2022-08-20T06:46:24.013Z,364.00
2022-08-20T06:47:23.951Z,356.00
2022-08-20T06:48:23.889Z,348.00
2022-08-20T06:49:23.835Z,344.00
2022-08-20T06:50:23.776Z,348.00
2022-08-20T06:51:23.720Z,344.00
2022-08-20T06:52:28.634Z,340.00
2022-08-20T06:53:23.607Z,336.00
2022-08-20T06:54:23.539Z,336.00
2022-08-20T06:55:23.481Z,332.00
2022-08-20T06:56:23.424Z,328.00
2022-08-20T06:57:23.370Z,332.00
2022-08-20T06:58:36.870Z,332.00
2022-08-20T06:59:23.243Z,328.00
2022-08-20T07:00:23.182Z,332.00
2022-08-20T07:01:23.190Z,336.00
2022-08-20T07:02:23.061Z,332.00
2022-08-20T07:03:23.017Z,332.00
2022-08-20T07:04:22.945Z,328.00
2022-08-20T07:05:22.894Z,328.00
2022-08-20T07:06:22.825Z,328.00
2022-08-20T07:07:22.783Z,328.00
2022-08-20T07:08:22.715Z,328.00
2022-08-20T07:09:22.657Z,332.00
2022-08-20T07:10:22.608Z,332.00
2022-08-20T07:11:27.336Z,336.00
2022-08-20T07:12:22.486Z,340.00
2022-08-20T07:13:22.416Z,344.00
2022-08-20T07:14:22.352Z,348.00
2022-08-20T07:15:22.317Z,360.00
2022-08-20T07:16:22.237Z,368.00
2022-08-20T07:17:24.167Z,380.00
2022-08-20T07:18:28.073Z,376.00
2022-08-20T07:19:22.067Z,384.00
2022-08-20T07:20:22.000Z,392.00
2022-08-20T07:21:21.950Z,400.00
2022-08-20T07:22:21.892Z,404.00
2022-08-20T07:23:21.824Z,396.00
2022-08-20T07:24:21.786Z,388.00
2022-08-20T07:25:21.727Z,364.00
2022-08-20T07:26:21.658Z,348.00
2022-08-20T07:27:21.598Z,344.00
2022-08-20T07:28:21.530Z,364.00
2022-08-20T07:29:21.676Z,380.00
2022-08-20T07:30:21.407Z,392.00
2022-08-20T07:31:21.351Z,388.00
2022-08-20T07:32:21.916Z,376.00
2022-08-20T07:33:21.233Z,372.00
2022-08-20T07:34:21.174Z,360.00
2022-08-20T07:35:21.113Z,340.00
2022-08-20T07:36:21.052Z,308.00
2022-08-20T07:37:20.999Z,296.00
2022-08-20T07:38:20.938Z,284.00
2022-08-20T07:39:20.889Z,272.00
2022-08-20T07:40:25.710Z,288.00
2022-08-20T07:41:20.767Z,304.00
2022-08-20T07:42:20.705Z,300.00
2022-08-20T07:43:20.648Z,284.00
2022-08-20T07:44:20.583Z,268.00
2022-08-20T07:45:20.527Z,288.00
2022-08-20T07:46:20.856Z,316.00
2022-08-20T07:47:20.407Z,296.00
2022-08-20T07:48:31.443Z,272.00
2022-08-20T07:49:20.288Z,284.00
2022-08-20T07:50:20.226Z,272.00
2022-08-20T07:51:20.176Z,264.00
2022-08-20T07:52:20.108Z,280.00
2022-08-20T07:53:20.072Z,280.00
2022-08-20T07:54:19.991Z,300.00
2022-08-20T07:55:19.945Z,308.00
2022-08-20T07:56:19.875Z,268.00
2022-08-20T07:57:19.875Z,264.00
2022-08-20T07:58:19.766Z,292.00
2022-08-20T07:59:19.709Z,332.00
2022-08-20T08:00:19.713Z,352.00
2022-08-20T08:01:19.630Z,368.00
2022-08-20T08:02:19.521Z,408.00
2022-08-20T08:03:19.461Z,456.00
2022-08-20T08:04:19.411Z,476.00
2022-08-20T08:05:19.370Z,464.00
2022-08-20T08:06:28.706Z,464.00
2022-08-20T08:07:19.240Z,464.00
2022-08-20T08:08:19.169Z,468.00
2022-08-20T08:09:19.116Z,496.00
2022-08-20T08:10:19.051Z,532.00
2022-08-20T08:11:18.999Z,548.00
2022-08-20T08:12:18.932Z,556.00
2022-08-20T08:13:18.874Z,552.00
2022-08-20T08:14:18.818Z,548.00
2022-08-20T08:15:18.767Z,528.00
2022-08-20T08:16:18.696Z,496.00
2022-08-20T08:17:18.660Z,440.00
2022-08-20T08:18:18.578Z,432.00
2022-08-20T08:19:18.521Z,516.00
2022-08-20T08:20:18.491Z,580.00
2022-08-20T08:21:18.431Z,624.00
2022-08-20T08:22:18.343Z,636.00
2022-08-20T08:23:24.629Z,648.00
2022-08-20T08:24:21.057Z,656.00
2022-08-20T08:25:18.175Z,644.00
2022-08-20T08:26:19.228Z,624.00
2022-08-20T08:27:18.048Z,612.00
2022-08-20T08:28:17.995Z,580.00
2022-08-20T08:29:17.937Z,548.00
2022-08-20T08:30:17.876Z,540.00
2022-08-20T08:31:17.820Z,532.00
2022-08-20T08:32:17.762Z,512.00
2022-08-20T08:33:17.700Z,508.00
2022-08-20T08:34:17.641Z,508.00
2022-08-20T08:35:17.604Z,512.00
2022-08-20T08:36:17.520Z,520.00
2022-08-20T08:37:17.468Z,536.00
2022-08-20T08:38:17.407Z,556.00
2022-08-20T08:39:17.348Z,548.00
2022-08-20T08:40:17.348Z,516.00
2022-08-20T08:41:17.226Z,456.00
2022-08-20T08:42:17.167Z,364.00
2022-08-20T08:43:17.354Z,324.00
2022-08-20T08:44:17.080Z,332.00
2022-08-20T08:45:16.991Z,336.00
2022-08-20T08:46:16.930Z,400.00
2022-08-20T08:47:16.932Z,524.00
2022-08-20T08:48:18.633Z,604.00
2022-08-20T08:49:16.766Z,680.00
2022-08-20T08:50:24.832Z,740.00
2022-08-20T08:51:16.636Z,780.00
2022-08-20T08:52:16.587Z,768.00
2022-08-20T08:53:16.526Z,820.00
2022-08-20T08:54:16.465Z,840.00
2022-08-20T08:55:16.400Z,932.00
2022-08-20T08:56:16.342Z,960.00
2022-08-20T08:57:16.283Z,968.00
2022-08-20T08:58:17.019Z,1004.00
2022-08-20T08:59:16.177Z,1020.00
2022-08-20T09:00:16.110Z,1040.00
2022-08-20T09:01:54.720Z,1044.00
2022-08-20T09:02:16.055Z,1040.00
2022-08-20T09:03:15.935Z,1056.00
2022-08-20T09:04:15.917Z,1080.00
2022-08-20T09:05:15.827Z,1096.00
2022-08-20T09:06:15.757Z,1112.00
2022-08-20T09:07:15.700Z,1120.00
2022-08-20T09:08:17.110Z,1116.00
2022-08-20T09:09:15.578Z,1104.00
2022-08-20T09:10:15.519Z,1100.00
2022-08-20T09:11:15.462Z,1092.00
2022-08-20T09:12:15.405Z,1076.00
2022-08-20T09:13:15.344Z,1076.00
2022-08-20T09:14:15.285Z,1036.00
2022-08-20T09:15:15.229Z,976.00
2022-08-20T09:16:15.167Z,924.00
2022-08-20T09:17:15.124Z,892.00
2022-08-20T09:18:15.059Z,820.00
2022-08-20T09:19:14.996Z,748.00
2022-08-20T09:20:14.935Z,792.00
2022-08-20T09:21:14.878Z,860.00
2022-08-20T09:22:14.818Z,880.00
2022-08-20T09:23:14.762Z,900.00
2022-08-20T09:24:14.701Z,952.00
2022-08-20T09:25:14.641Z,952.00
2022-08-20T09:26:14.588Z,924.00
2022-08-20T09:27:14.529Z,904.00
2022-08-20T09:28:14.465Z,892.00
2022-08-20T09:29:14.419Z,936.00
2022-08-20T09:30:14.360Z,940.00
2022-08-20T09:31:14.293Z,932.00
2022-08-20T09:32:14.242Z,944.00
2022-08-20T09:33:14.173Z,904.00
2022-08-20T09:34:14.116Z,756.00
2022-08-20T09:35:14.075Z,680.00
2022-08-20T09:36:32.144Z,716.00
2022-08-20T09:37:13.946Z,784.00
2022-08-20T09:38:13.883Z,728.00
2022-08-20T09:39:13.822Z,612.00
2022-08-20T09:40:13.858Z,620.00
2022-08-20T09:41:13.717Z,628.00
2022-08-20T09:42:13.655Z,560.00
2022-08-20T09:43:13.594Z,480.00
2022-08-20T09:44:13.536Z,504.00
2022-08-20T09:45:13.495Z,640.00
2022-08-20T09:46:13.419Z,780.00
2022-08-20T09:47:13.359Z,884.00
2022-08-20T09:48:13.298Z,948.00
2022-08-20T09:49:13.242Z,1012.00
2022-08-20T09:50:13.182Z,1040.00
2022-08-20T09:51:13.123Z,1096.00
2022-08-20T09:52:13.072Z,1160.00
2022-08-20T09:53:13.018Z,1220.00
2022-08-20T09:54:12.961Z,1308.00
2022-08-20T09:55:12.913Z,1316.00
2022-08-20T09:56:12.832Z,1292.00
2022-08-20T09:57:12.823Z,1280.00
2022-08-20T09:58:12.717Z,1312.00
2022-08-20T09:59:12.670Z,1328.00
2022-08-20T10:00:12.602Z,1348.00
2022-08-20T10:01:13.920Z,1368.00
2022-08-20T10:02:12.486Z,1384.00
2022-08-20T10:03:12.425Z,1412.00
2022-08-20T10:04:12.376Z,1376.00
2022-08-20T10:05:12.550Z,1384.00
2022-08-20T10:06:12.252Z,1404.00
2022-08-20T10:07:12.190Z,1420.00
2022-08-20T10:08:12.137Z,1424.00
2022-08-20T10:09:12.075Z,1436.00
2022-08-20T10:10:12.017Z,1452.00
2022-08-20T10:11:11.960Z,1472.00
2022-08-20T10:12:11.902Z,1468.00
2022-08-20T10:13:13.292Z,1428.00
2022-08-20T10:14:11.784Z,1400.00
2022-08-20T10:15:11.732Z,1472.00
2022-08-20T10:16:11.674Z,1552.00
2022-08-20T10:17:11.613Z,1492.00
2022-08-20T10:18:12.346Z,1448.00
2022-08-20T10:19:11.507Z,1404.00
2022-08-20T10:20:11.439Z,1480.00
2022-08-20T10:21:11.386Z,1492.00
2022-08-20T10:22:11.328Z,1448.00
2022-08-20T10:23:11.266Z,1384.00
2022-08-20T10:24:11.205Z,1364.00
2022-08-20T10:25:11.144Z,1408.00
2022-08-20T10:26:11.098Z,1412.00
2022-08-20T10:27:11.037Z,1384.00
2022-08-20T10:28:10.973Z,1368.00
2022-08-20T10:29:10.915Z,1448.00
2022-08-20T10:30:10.858Z,1524.00
2022-08-20T10:31:10.801Z,1524.00
2022-08-20T10:32:10.743Z,1464.00
2022-08-20T10:33:10.682Z,1392.00
2022-08-20T10:34:10.625Z,1436.00
2022-08-20T10:35:10.565Z,1476.00
2022-08-20T10:36:10.519Z,1468.00
2022-08-20T10:37:10.499Z,1444.00
2022-08-20T10:38:10.394Z,1408.00
2022-08-20T10:39:10.354Z,1400.00
2022-08-20T10:40:10.309Z,1420.00
2022-08-20T10:41:10.218Z,1412.00
2022-08-20T10:42:10.175Z,1392.00
2022-08-20T10:43:10.105Z,1412.00
2022-08-20T10:44:10.062Z,1404.00
2022-08-20T10:45:10.007Z,1440.00
2022-08-20T10:46:09.942Z,1452.00
2022-08-20T10:47:09.886Z,1440.00
2022-08-20T10:48:09.825Z,1420.00
2022-08-20T10:49:09.772Z,1400.00
2022-08-20T10:50:09.712Z,1368.00
2022-08-20T10:51:09.650Z,1320.00
2022-08-20T10:52:09.595Z,1324.00
2022-08-20T10:53:09.524Z,1328.00
2022-08-20T10:54:12.621Z,1340.00
2022-08-20T10:55:09.423Z,1364.00
2022-08-20T10:56:12.668Z,1352.00
2022-08-20T10:57:09.298Z,1364.00
2022-08-20T10:58:11.369Z,1360.00
2022-08-20T10:59:09.177Z,1356.00
2022-08-20T11:00:09.127Z,1336.00
2022-08-20T11:01:09.063Z,1332.00
2022-08-20T11:02:09.155Z,1332.00
2022-08-20T11:03:08.951Z,1324.00
2022-08-20T11:04:08.890Z,1316.00
2022-08-20T11:05:08.829Z,1300.00
2022-08-20T11:06:08.790Z,1292.00
2022-08-20T11:07:08.767Z,1272.00
2022-08-20T11:08:08.671Z,1264.00
2022-08-20T11:09:09.290Z,1260.00
2022-08-20T11:10:13.445Z,1256.00
2022-08-20T11:11:08.480Z,1252.00
2022-08-20T11:12:08.427Z,1240.00
2022-08-20T11:13:08.366Z,1224.00
2022-08-20T11:14:08.311Z,1212.00
2022-08-20T11:15:09.329Z,1196.00
2022-08-20T11:16:08.200Z,1188.00
2022-08-20T11:17:08.140Z,1180.00
2022-08-20T11:18:08.078Z,1172.00
2022-08-20T11:19:08.025Z,1168.00
2022-08-20T11:20:07.977Z,1160.00
2022-08-20T11:21:07.905Z,1160.00
2022-08-20T11:22:07.844Z,1156.00
2022-08-20T11:23:07.789Z,1156.00
2022-08-20T11:24:07.734Z,1156.00
2022-08-20T11:25:07.673Z,1144.00
2022-08-20T11:26:07.746Z,1136.00
2022-08-20T11:27:08.363Z,1100.00
2022-08-20T11:28:07.500Z,1084.00
2022-08-20T11:29:07.446Z,1064.00
2022-08-20T11:30:07.415Z,1048.00
2022-08-20T11:31:07.329Z,1040.00
2022-08-20T11:32:07.270Z,1036.00
2022-08-20T11:33:07.215Z,1028.00
2022-08-20T11:34:10.740Z,1016.00
2022-08-20T11:35:24.915Z,1004.00
2022-08-20T11:36:07.041Z,988.00
2022-08-20T11:37:06.984Z,964.00
2022-08-20T11:38:06.936Z,936.00
2022-08-20T11:39:06.884Z,908.00
2022-08-20T11:40:06.859Z,868.00
2022-08-20T11:41:06.747Z,836.00
2022-08-20T11:42:06.689Z,808.00
2022-08-20T11:43:15.569Z,784.00
2022-08-20T11:44:20.790Z,764.00
2022-08-20T11:45:06.573Z,740.00
2022-08-20T11:46:06.550Z,664.00
2022-08-20T11:47:06.450Z,712.00
2022-08-20T11:48:06.393Z,704.00
2022-08-20T11:49:08.848Z,696.00
2022-08-20T11:50:06.272Z,688.00
2022-08-20T11:51:06.202Z,688.00
2022-08-20T11:52:06.140Z,688.00
2022-08-20T11:53:06.112Z,688.00
2022-08-20T11:54:06.288Z,696.00
2022-08-20T11:55:05.993Z,700.00
2022-08-20T11:56:05.925Z,712.00
2022-08-20T11:57:06.259Z,724.00
2022-08-20T11:58:05.808Z,732.00
2022-08-20T11:59:05.747Z,744.00
2022-08-20T12:00:05.713Z,756.00
2022-08-20T12:01:05.653Z,748.00
2022-08-20T12:02:10.251Z,788.00
2022-08-20T12:03:06.656Z,800.00
2022-08-20T12:04:05.531Z,816.00
2022-08-20T12:05:05.438Z,824.00
2022-08-20T12:06:05.342Z,832.00
2022-08-20T12:07:05.346Z,836.00
2022-08-20T12:08:05.320Z,836.00
2022-08-20T12:09:05.191Z,840.00
2022-08-20T12:10:05.200Z,852.00
2022-08-20T12:11:05.376Z,856.00
2022-08-20T12:12:05.235Z,864.00
2022-08-20T12:13:05.089Z,868.00
2022-08-20T12:14:04.850Z,876.00
2022-08-20T12:15:04.865Z,880.00
2022-08-20T12:16:04.792Z,888.00
2022-08-20T12:17:04.793Z,888.00
2022-08-20T12:19:04.606Z,888.00
2022-08-20T12:20:04.539Z,888.00
2022-08-20T12:21:04.753Z,884.00
2022-08-20T12:22:17.528Z,892.00
2022-08-20T12:23:04.428Z,900.00
2022-08-20T12:24:04.335Z,900.00
2022-08-20T12:25:04.238Z,916.00
2022-08-20T12:26:04.335Z,920.00
2022-08-20T12:27:04.249Z,924.00
2022-08-20T12:28:04.156Z,924.00
2022-08-20T12:29:04.065Z,928.00
2022-08-20T12:30:03.965Z,920.00
2022-08-20T12:31:03.899Z,916.00
2022-08-20T12:32:03.873Z,908.00
2022-08-20T12:33:03.775Z,904.00
2022-08-20T12:34:03.780Z,892.00
2022-08-20T12:35:03.685Z,884.00
2022-08-20T12:36:03.691Z,876.00
2022-08-20T12:37:03.696Z,872.00
2022-08-20T12:38:03.496Z,868.00
2022-08-20T12:39:03.438Z,868.00
2022-08-20T12:40:03.434Z,868.00
2022-08-20T12:41:03.341Z,876.00
2022-08-20T12:42:03.249Z,880.00